createdAt,value
2022-09-15T00:01:51.912Z,997.31
2022-09-15T00:06:55.997Z,997.31
2022-09-15T00:12:00.226Z,997.42
2022-09-15T00:17:04.425Z,997.39
2022-09-15T00:22:08.479Z,997.31
2022-09-15T00:27:12.649Z,997.25
2022-09-15T00:32:16.816Z,997.22
2022-09-15T00:37:20.988Z,997.25
2022-09-15T00:42:25.137Z,997.30
2022-09-15T00:47:29.320Z,997.24
2022-09-15T00:52:33.476Z,997.28
2022-09-15T00:57:37.647Z,997.36
2022-09-15T01:02:39.948Z,997.29
2022-09-15T01:07:44.041Z,997.19
2022-09-15T01:12:46.321Z,997.17
2022-09-15T01:17:50.465Z,997.27
2022-09-15T01:22:54.659Z,997.24
2022-09-15T01:27:58.814Z,997.24
2022-09-15T01:33:02.983Z,997.30
2022-09-15T01:38:07.133Z,997.29
2022-09-15T01:43:11.275Z,997.26
2022-09-15T01:48:15.454Z,997.19
2022-09-15T01:53:19.648Z,997.16
2022-09-15T01:58:23.784Z,997.25
2022-09-15T02:03:27.933Z,997.24
2022-09-15T02:08:32.074Z,997.26
2022-09-15T02:13:36.264Z,997.21
2022-09-15T02:18:40.436Z,997.30
2022-09-15T02:23:44.700Z,997.31
2022-09-15T02:28:48.718Z,997.36
2022-09-15T02:33:52.916Z,997.31
2022-09-15T02:38:57.055Z,997.32
2022-09-15T02:44:01.252Z,997.27
2022-09-15T02:49:05.370Z,997.30
2022-09-15T02:54:09.569Z,997.28
2022-09-15T02:59:11.814Z,997.29
2022-09-15T03:04:16.000Z,997.22
2022-09-15T03:09:20.149Z,997.43
2022-09-15T03:14:24.315Z,997.42
2022-09-15T03:19:28.451Z,997.46
2022-09-15T03:24:32.617Z,997.46
2022-09-15T03:29:36.815Z,997.42
2022-09-15T03:34:40.925Z,997.48
2022-09-15T03:39:45.154Z,997.40
2022-09-15T03:44:49.288Z,997.46
2022-09-15T03:49:53.478Z,997.45
2022-09-15T03:54:57.636Z,997.46
2022-09-15T04:00:01.899Z,997.49
2022-09-15T04:05:04.029Z,997.52
2022-09-15T04:10:08.204Z,997.47
2022-09-15T04:15:12.334Z,997.43
2022-09-15T04:20:16.484Z,997.39
2022-09-15T04:25:20.684Z,997.45
2022-09-15T04:30:24.808Z,997.45
2022-09-15T04:35:29.008Z,997.45
2022-09-15T04:40:33.219Z,997.47
2022-09-15T04:45:35.413Z,997.46
2022-09-15T04:50:39.611Z,997.40
2022-09-15T04:55:41.904Z,997.48
2022-09-15T05:00:46.059Z,997.43
2022-09-15T05:05:48.305Z,997.52
2022-09-15T05:10:52.470Z,997.56
2022-09-15T05:15:58.655Z,997.59
2022-09-15T05:21:00.751Z,997.58
2022-09-15T05:26:04.908Z,997.61
2022-09-15T05:31:09.150Z,997.69
2022-09-15T05:36:13.241Z,997.68
2022-09-15T05:41:17.402Z,997.67
2022-09-15T05:46:21.640Z,997.69
2022-09-15T05:51:25.730Z,997.65
2022-09-15T05:56:29.875Z,997.71
2022-09-15T06:01:34.079Z,997.76
2022-09-15T06:06:38.183Z,997.79
2022-09-15T06:11:42.346Z,997.83
2022-09-15T06:16:46.593Z,997.87
2022-09-15T06:21:50.686Z,997.96
2022-09-15T06:26:54.810Z,998.05
2022-09-15T06:31:59.047Z,998.02
2022-09-15T06:37:03.180Z,998.07
2022-09-15T06:42:09.445Z,998.12
2022-09-15T06:47:11.481Z,998.17
2022-09-15T06:52:13.779Z,998.14
2022-09-15T06:57:17.917Z,998.23
2022-09-15T07:02:22.285Z,998.27
2022-09-15T07:07:26.281Z,998.46
2022-09-15T07:12:30.522Z,998.47
2022-09-15T07:17:34.550Z,998.43
2022-09-15T07:22:38.695Z,998.52
2022-09-15T07:27:42.994Z,998.54
2022-09-15T07:32:47.007Z,998.53
2022-09-15T07:37:51.245Z,998.52
2022-09-15T07:42:55.346Z,998.56
2022-09-15T07:47:59.528Z,998.58
2022-09-15T07:53:03.702Z,998.58
2022-09-15T07:58:07.840Z,998.63
2022-09-15T08:03:12.000Z,998.62
2022-09-15T08:08:16.179Z,998.57
2022-09-15T08:13:20.321Z,998.58
2022-09-15T08:18:24.508Z,998.69
2022-09-15T08:23:28.625Z,998.79
2022-09-15T08:28:32.830Z,998.76
2022-09-15T08:33:38.905Z,999.01
2022-09-15T08:38:39.242Z,999.03
2022-09-15T08:43:43.554Z,999.05
2022-09-15T08:48:45.687Z,999.10
2022-09-15T08:53:49.816Z,999.07
2022-09-15T08:58:53.996Z,998.99
2022-09-15T09:03:58.235Z,999.11
2022-09-15T09:09:02.286Z,999.08
2022-09-15T09:14:06.438Z,999.10
2022-09-15T09:19:10.606Z,999.03
2022-09-15T09:24:14.760Z,999.14
2022-09-15T09:29:18.945Z,999.04
2022-09-15T09:34:23.229Z,999.08
2022-09-15T09:39:27.237Z,999.08
2022-09-15T09:44:31.418Z,999.08
2022-09-15T09:49:35.569Z,999.06
2022-09-15T09:54:39.717Z,999.12
2022-09-15T09:59:43.886Z,999.10
2022-09-15T10:04:48.044Z,999.01
2022-09-15T10:09:52.194Z,999.04
2022-09-15T10:14:56.373Z,999.11
2022-09-15T10:20:00.537Z,998.97
2022-09-15T10:25:04.691Z,998.99
2022-09-15T10:30:08.843Z,998.90
2022-09-15T10:35:11.094Z,998.94
2022-09-15T10:40:15.378Z,999.05
2022-09-15T10:45:19.453Z,999.03
2022-09-15T10:50:21.713Z,999.04
2022-09-15T10:55:48.616Z,999.09
2022-09-15T11:00:30.059Z,999.12
2022-09-15T11:05:34.152Z,999.23
2022-09-15T11:10:38.332Z,999.39
2022-09-15T11:15:42.504Z,999.52
2022-09-15T11:20:46.706Z,999.49
2022-09-15T11:25:50.805Z,999.50
2022-09-15T11:30:54.976Z,999.43
2022-09-15T11:35:59.157Z,999.52
2022-09-15T11:41:03.300Z,999.45
2022-09-15T11:46:07.523Z,999.41
2022-09-15T11:51:11.603Z,999.45
2022-09-15T11:56:15.767Z,999.51
2022-09-15T12:01:19.941Z,999.52
2022-09-15T12:11:28.299Z,999.45
2022-09-15T12:16:32.404Z,999.38
2022-09-15T12:21:36.575Z,999.37
2022-09-15T12:26:40.772Z,999.34
2022-09-15T12:31:46.391Z,999.35
2022-09-15T12:36:49.131Z,999.43
2022-09-15T12:41:51.312Z,999.39
2022-09-15T12:46:55.552Z,999.41
2022-09-15T12:51:57.794Z,999.42
2022-09-15T12:57:01.930Z,999.42
2022-09-15T13:02:06.122Z,999.43
2022-09-15T13:07:10.274Z,999.44
2022-09-15T13:12:14.394Z,999.38
2022-09-15T13:17:18.542Z,999.42
2022-09-15T13:22:22.697Z,999.39
2022-09-15T13:27:26.925Z,999.31
2022-09-15T13:32:31.049Z,999.27
2022-09-15T13:38:13.585Z,999.28
2022-09-15T13:42:39.339Z,999.18
2022-09-15T13:47:43.538Z,999.17
2022-09-15T13:52:47.646Z,999.15
2022-09-15T14:02:55.957Z,998.97
2022-09-15T14:08:01.364Z,998.94
2022-09-15T14:13:04.336Z,998.87
2022-09-15T14:18:08.654Z,998.94
2022-09-15T14:23:12.621Z,998.95
2022-09-15T14:28:16.797Z,998.94
2022-09-15T14:33:20.956Z,999.00
2022-09-15T14:38:23.295Z,999.12
2022-09-15T14:43:27.364Z,999.12
2022-09-15T14:48:31.526Z,999.03
2022-09-15T14:53:35.690Z,999.05
2022-09-15T14:58:39.857Z,999.07
2022-09-15T15:03:44.039Z,999.10
2022-09-15T15:08:48.185Z,999.08
2022-09-15T15:13:52.626Z,999.08
2022-09-15T15:18:56.463Z,999.05
2022-09-15T15:24:00.638Z,999.12
2022-09-15T15:29:04.818Z,999.00
2022-09-15T15:34:08.990Z,998.98
2022-09-15T15:39:13.130Z,999.05
2022-09-15T15:44:17.323Z,999.03
2022-09-15T15:49:21.457Z,999.05
2022-09-15T15:54:25.604Z,998.99
2022-09-15T15:59:29.780Z,998.92
2022-09-15T16:04:33.933Z,998.81
2022-09-15T16:09:38.096Z,998.89
2022-09-15T16:14:42.223Z,998.98
2022-09-15T16:19:46.397Z,998.91
2022-09-15T16:24:48.717Z,998.92
2022-09-15T16:29:52.855Z,999.03
2022-09-15T16:34:55.118Z,999.14
2022-09-15T16:39:59.358Z,999.03
2022-09-15T16:45:03.437Z,999.13
2022-09-15T16:50:07.580Z,999.17
2022-09-15T16:55:11.737Z,999.29
2022-09-15T17:00:15.862Z,999.28
2022-09-15T17:05:20.051Z,999.28
2022-09-15T17:10:24.231Z,999.29
2022-09-15T17:15:28.370Z,999.41
2022-09-15T17:20:37.037Z,999.42
2022-09-15T17:25:36.684Z,999.38
2022-09-15T17:30:40.878Z,999.38
2022-09-15T17:35:44.990Z,999.42
2022-09-15T17:40:49.161Z,999.38
2022-09-15T17:45:53.331Z,999.42
2022-09-15T17:50:57.538Z,999.37
2022-09-15T17:56:01.656Z,999.41
2022-09-15T18:01:05.830Z,999.44
2022-09-15T18:06:10.001Z,999.50
2022-09-15T18:11:14.142Z,999.48
2022-09-15T18:16:18.391Z,999.50
2022-09-15T18:21:20.545Z,999.56
2022-09-15T18:26:26.629Z,999.68
2022-09-15T18:31:28.927Z,999.71
2022-09-15T18:36:35.029Z,999.76
2022-09-15T18:41:37.796Z,999.76
2022-09-15T18:46:41.386Z,999.75
2022-09-15T18:51:51.724Z,999.89
2022-09-15T18:56:49.677Z,999.83
2022-09-15T19:01:54.026Z,999.83
2022-09-15T19:06:58.027Z,999.87
2022-09-15T19:12:02.148Z,1000.01
2022-09-15T19:17:06.334Z,1000.04
2022-09-15T19:22:10.486Z,1000.04
2022-09-15T19:27:14.659Z,1000.00
2022-09-15T19:32:18.800Z,1000.05
2022-09-15T19:37:22.952Z,1000.16
2022-09-15T19:42:27.123Z,1000.05
2022-09-15T19:47:31.279Z,1000.06
2022-09-15T19:52:35.548Z,1000.03
2022-09-15T19:57:39.609Z,1000.07
2022-09-15T20:02:43.845Z,1000.06
2022-09-15T20:07:46.041Z,1000.17
2022-09-15T20:12:50.199Z,1000.26
2022-09-15T20:17:54.360Z,1000.30
2022-09-15T20:22:58.515Z,1000.42
2022-09-15T20:28:02.645Z,1000.40
2022-09-15T20:33:06.853Z,1000.47
2022-09-15T20:38:11.014Z,1000.50
2022-09-15T20:43:15.127Z,1000.50
2022-09-15T20:48:19.359Z,1000.57
2022-09-15T20:53:23.496Z,1000.68
2022-09-15T20:58:27.642Z,1000.59
2022-09-15T21:03:29.889Z,1000.54
2022-09-15T21:08:34.067Z,1000.62
2022-09-15T21:13:38.246Z,1000.68
2022-09-15T21:18:42.401Z,1000.65
2022-09-15T21:23:46.594Z,1000.58
2022-09-15T21:28:50.697Z,1000.58
2022-09-15T21:33:54.891Z,1000.66
2022-09-15T21:38:59.006Z,1000.79
2022-09-15T21:44:03.209Z,1000.68
2022-09-15T21:49:07.321Z,1000.78
2022-09-15T21:54:11.477Z,1000.69
2022-09-15T21:59:15.633Z,1000.66
2022-09-15T22:04:19.819Z,1000.76
2022-09-15T22:09:23.998Z,1000.68
2022-09-15T22:14:28.136Z,1000.68
2022-09-15T22:19:32.314Z,1000.66
2022-09-15T22:24:36.431Z,1000.83
2022-09-15T22:29:40.599Z,1000.84
2022-09-15T22:34:44.831Z,1000.89
2022-09-15T22:39:58.978Z,1000.98
2022-09-15T22:44:53.145Z,1000.96
2022-09-15T22:49:57.303Z,1000.89
2022-09-15T22:55:01.470Z,1000.92
2022-09-15T23:00:05.606Z,1000.85
2022-09-15T23:05:09.771Z,1000.92
2022-09-15T23:10:13.932Z,1000.94
2022-09-15T23:15:18.066Z,1000.95
2022-09-15T23:20:22.454Z,1000.80
2022-09-15T23:25:26.425Z,1000.76
2022-09-15T23:30:30.567Z,1000.84
2022-09-15T23:35:34.729Z,1000.79
2022-09-15T23:40:38.867Z,1000.83
2022-09-15T23:45:43.040Z,1000.82
2022-09-15T23:50:47.184Z,1000.82
2022-09-15T23:55:51.357Z,1000.78
